sensor_id;sensor_type;location;lat;lon;timestamp;P1;durP1;ratioP1;P2;durP2;ratioP2
17345;SDS011;8790;53.590;10.002;2023-02-03T00:00:18;4.83;;;3.67;;
17345;SDS011;8790;53.590;10.002;2023-02-03T00:02:50;5.30;;;4.67;;
17345;SDS011;8790;53.590;10.002;2023-02-03T00:05:21;5.20;;;4.17;;
17345;SDS011;8790;53.590;10.002;2023-02-03T00:07:53;5.40;;;4.60;;
17345;SDS011;8790;53.590;10.002;2023-02-03T00:10:25;5.23;;;4.73;;
17345;SDS011;8790;53.590;10.002;2023-02-03T00:12:58;6.37;;;4.83;;
17345;SDS011;8790;53.590;10.002;2023-02-03T00:15:30;6.67;;;4.90;;
17345;SDS011;8790;53.590;10.002;2023-02-03T00:18:02;6.47;;;4.90;;
17345;SDS011;8790;53.590;10.002;2023-02-03T00:20:34;6.33;;;5.47;;
17345;SDS011;8790;53.590;10.002;2023-02-03T00:23:06;7.33;;;5.63;;
17345;SDS011;8790;53.590;10.002;2023-02-03T00:25:39;6.57;;;5.13;;
17345;SDS011;8790;53.590;10.002;2023-02-03T00:28:12;7.17;;;5.37;;
17345;SDS011;8790;53.590;10.002;2023-02-03T00:30:43;7.40;;;5.50;;
17345;SDS011;8790;53.590;10.002;2023-02-03T00:33:15;7.33;;;6.07;;
17345;SDS011;8790;53.590;10.002;2023-02-03T00:35:47;7.20;;;5.87;;
17345;SDS011;8790;53.590;10.002;2023-02-03T00:38:19;7.90;;;5.83;;
17345;SDS011;8790;53.590;10.002;2023-02-03T00:40:51;8.13;;;5.43;;
17345;SDS011;8790;53.590;10.002;2023-02-03T00:43:24;7.57;;;5.60;;
17345;SDS011;8790;53.590;10.002;2023-02-03T00:45:56;7.33;;;6.17;;
17345;SDS011;8790;53.590;10.002;2023-02-03T00:48:28;7.90;;;6.13;;
17345;SDS011;8790;53.590;10.002;2023-02-03T00:51:00;7.63;;;6.10;;
17345;SDS011;8790;53.590;10.002;2023-02-03T00:53:32;8.47;;;6.13;;
17345;SDS011;8790;53.590;10.002;2023-02-03T00:56:05;8.80;;;6.50;;
17345;SDS011;8790;53.590;10.002;2023-02-03T00:58:42;10.23;;;7.10;;
17345;SDS011;8790;53.590;10.002;2023-02-03T01:01:14;10.60;;;6.90;;
17345;SDS011;8790;53.590;10.002;2023-02-03T01:03:46;11.27;;;7.00;;
17345;SDS011;8790;53.590;10.002;2023-02-03T01:06:20;12.77;;;7.37;;
17345;SDS011;8790;53.590;10.002;2023-02-03T01:08:52;12.03;;;7.90;;
17345;SDS011;8790;53.590;10.002;2023-02-03T01:11:25;11.80;;;7.33;;
17345;SDS011;8790;53.590;10.002;2023-02-03T01:13:58;11.80;;;7.53;;
17345;SDS011;8790;53.590;10.002;2023-02-03T01:16:31;14.17;;;8.77;;
17345;SDS011;8790;53.590;10.002;2023-02-03T01:19:07;11.27;;;8.13;;
17345;SDS011;8790;53.590;10.002;2023-02-03T01:21:38;10.80;;;7.77;;
17345;SDS011;8790;53.590;10.002;2023-02-03T01:24:10;14.83;;;7.97;;
17345;SDS011;8790;53.590;10.002;2023-02-03T01:26:44;15.20;;;8.13;;
17345;SDS011;8790;53.590;10.002;2023-02-03T01:29:17;13.30;;;8.33;;
17345;SDS011;8790;53.590;10.002;2023-02-03T01:31:49;15.23;;;8.50;;
17345;SDS011;8790;53.590;10.002;2023-02-03T01:34:20;13.23;;;7.43;;
17345;SDS011;8790;53.590;10.002;2023-02-03T01:36:52;15.93;;;7.70;;
17345;SDS011;8790;53.590;10.002;2023-02-03T01:39:25;10.20;;;7.13;;
17345;SDS011;8790;53.590;10.002;2023-02-03T01:41:56;16.10;;;7.70;;
17345;SDS011;8790;53.590;10.002;2023-02-03T01:44:39;14.37;;;7.40;;
17345;SDS011;8790;53.590;10.002;2023-02-03T01:47:14;12.67;;;7.17;;
17345;SDS011;8790;53.590;10.002;2023-02-03T01:49:54;9.43;;;6.90;;
17345;SDS011;8790;53.590;10.002;2023-02-03T01:52:29;11.00;;;6.60;;
17345;SDS011;8790;53.590;10.002;2023-02-03T01:55:03;10.40;;;7.10;;
17345;SDS011;8790;53.590;10.002;2023-02-03T01:57:40;10.40;;;6.43;;
17345;SDS011;8790;53.590;10.002;2023-02-03T02:00:16;10.73;;;6.60;;
17345;SDS011;8790;53.590;10.002;2023-02-03T02:02:48;10.73;;;6.43;;
17345;SDS011;8790;53.590;10.002;2023-02-03T02:05:23;8.30;;;6.10;;
17345;SDS011;8790;53.590;10.002;2023-02-03T02:07:59;12.80;;;6.87;;
17345;SDS011;8790;53.590;10.002;2023-02-03T02:10:33;9.77;;;6.27;;
17345;SDS011;8790;53.590;10.002;2023-02-03T02:13:05;10.60;;;6.03;;
17345;SDS011;8790;53.590;10.002;2023-02-03T02:15:42;10.37;;;6.10;;
17345;SDS011;8790;53.590;10.002;2023-02-03T02:18:21;13.20;;;5.57;;
17345;SDS011;8790;53.590;10.002;2023-02-03T02:21:23;10.97;;;5.90;;
17345;SDS011;8790;53.590;10.002;2023-02-03T02:24:38;9.93;;;5.93;;
17345;SDS011;8790;53.590;10.002;2023-02-03T02:27:50;9.70;;;5.80;;
17345;SDS011;8790;53.590;10.002;2023-02-03T02:30:56;10.00;;;6.17;;
17345;SDS011;8790;53.590;10.002;2023-02-03T02:33:47;9.10;;;5.60;;
17345;SDS011;8790;53.590;10.002;2023-02-03T02:36:29;9.40;;;5.57;;
17345;SDS011;8790;53.590;10.002;2023-02-03T02:39:07;8.90;;;5.60;;
17345;SDS011;8790;53.590;10.002;2023-02-03T02:41:44;9.97;;;5.80;;
17345;SDS011;8790;53.590;10.002;2023-02-03T02:44:20;9.83;;;5.67;;
17345;SDS011;8790;53.590;10.002;2023-02-03T02:46:57;8.50;;;5.37;;
17345;SDS011;8790;53.590;10.002;2023-02-03T02:49:33;8.10;;;5.03;;
17345;SDS011;8790;53.590;10.002;2023-02-03T02:52:09;11.67;;;5.57;;
17345;SDS011;8790;53.590;10.002;2023-02-03T02:54:47;9.13;;;5.77;;
17345;SDS011;8790;53.590;10.002;2023-02-03T02:57:23;9.00;;;5.67;;
17345;SDS011;8790;53.590;10.002;2023-02-03T02:59:56;11.77;;;5.33;;
17345;SDS011;8790;53.590;10.002;2023-02-03T03:02:30;10.03;;;5.03;;
17345;SDS011;8790;53.590;10.002;2023-02-03T03:05:07;8.30;;;4.70;;
17345;SDS011;8790;53.590;10.002;2023-02-03T03:07:46;7.93;;;4.83;;
17345;SDS011;8790;53.590;10.002;2023-02-03T03:10:24;7.63;;;4.23;;
17345;SDS011;8790;53.590;10.002;2023-02-03T03:12:59;12.90;;;5.30;;
17345;SDS011;8790;53.590;10.002;2023-02-03T03:15:34;7.97;;;4.43;;
17345;SDS011;8790;53.590;10.002;2023-02-03T03:18:08;7.10;;;4.30;;
17345;SDS011;8790;53.590;10.002;2023-02-03T03:20:45;9.07;;;3.90;;
17345;SDS011;8790;53.590;10.002;2023-02-03T03:23:21;9.73;;;4.03;;
17345;SDS011;8790;53.590;10.002;2023-02-03T03:25:57;7.10;;;3.87;;
17345;SDS011;8790;53.590;10.002;2023-02-03T03:28:35;7.33;;;3.77;;
17345;SDS011;8790;53.590;10.002;2023-02-03T03:31:12;7.60;;;4.00;;
17345;SDS011;8790;53.590;10.002;2023-02-03T03:33:44;11.33;;;4.13;;
17345;SDS011;8790;53.590;10.002;2023-02-03T03:36:21;7.67;;;3.53;;
17345;SDS011;8790;53.590;10.002;2023-02-03T03:38:59;6.97;;;3.30;;
17345;SDS011;8790;53.590;10.002;2023-02-03T03:41:37;9.03;;;3.47;;
17345;SDS011;8790;53.590;10.002;2023-02-03T03:44:13;7.43;;;3.17;;
17345;SDS011;8790;53.590;10.002;2023-02-03T03:46:49;6.20;;;3.30;;
17345;SDS011;8790;53.590;10.002;2023-02-03T03:49:23;7.03;;;3.00;;
17345;SDS011;8790;53.590;10.002;2023-02-03T03:51:59;8.57;;;3.43;;
17345;SDS011;8790;53.590;10.002;2023-02-03T03:54:33;7.73;;;3.23;;
17345;SDS011;8790;53.590;10.002;2023-02-03T03:57:08;7.80;;;3.50;;
17345;SDS011;8790;53.590;10.002;2023-02-03T03:59:45;8.13;;;3.57;;
17345;SDS011;8790;53.590;10.002;2023-02-03T04:02:19;7.90;;;3.13;;
17345;SDS011;8790;53.590;10.002;2023-02-03T04:04:52;7.47;;;3.50;;
17345;SDS011;8790;53.590;10.002;2023-02-03T04:07:32;7.07;;;3.47;;
17345;SDS011;8790;53.590;10.002;2023-02-03T04:10:11;7.77;;;3.23;;
17345;SDS011;8790;53.590;10.002;2023-02-03T04:12:48;8.27;;;3.40;;
17345;SDS011;8790;53.590;10.002;2023-02-03T04:15:19;8.80;;;3.97;;
17345;SDS011;8790;53.590;10.002;2023-02-03T04:17:51;5.83;;;3.53;;
17345;SDS011;8790;53.590;10.002;2023-02-03T04:20:23;7.77;;;3.83;;
17345;SDS011;8790;53.590;10.002;2023-02-03T04:22:57;9.37;;;3.93;;
17345;SDS011;8790;53.590;10.002;2023-02-03T04:25:28;8.70;;;3.80;;
17345;SDS011;8790;53.590;10.002;2023-02-03T04:28:00;8.13;;;4.10;;
17345;SDS011;8790;53.590;10.002;2023-02-03T04:30:32;7.60;;;3.90;;
17345;SDS011;8790;53.590;10.002;2023-02-03T04:33:04;5.80;;;3.80;;
17345;SDS011;8790;53.590;10.002;2023-02-03T04:35:35;6.53;;;3.57;;
17345;SDS011;8790;53.590;10.002;2023-02-03T04:38:08;6.20;;;3.53;;
17345;SDS011;8790;53.590;10.002;2023-02-03T04:40:40;5.63;;;3.23;;
17345;SDS011;8790;53.590;10.002;2023-02-03T04:43:14;5.30;;;3.53;;
17345;SDS011;8790;53.590;10.002;2023-02-03T04:45:46;6.60;;;3.27;;
17345;SDS011;8790;53.590;10.002;2023-02-03T04:48:17;7.17;;;3.60;;
17345;SDS011;8790;53.590;10.002;2023-02-03T04:50:49;6.93;;;3.73;;
17345;SDS011;8790;53.590;10.002;2023-02-03T04:53:22;7.23;;;3.90;;
17345;SDS011;8790;53.590;10.002;2023-02-03T04:55:54;8.70;;;4.50;;
17345;SDS011;8790;53.590;10.002;2023-02-03T04:58:25;6.53;;;4.20;;
17345;SDS011;8790;53.590;10.002;2023-02-03T05:00:57;7.13;;;4.33;;
17345;SDS011;8790;53.590;10.002;2023-02-03T05:03:38;7.33;;;4.50;;
17345;SDS011;8790;53.590;10.002;2023-02-03T05:06:10;7.27;;;4.47;;
17345;SDS011;8790;53.590;10.002;2023-02-03T05:08:43;7.50;;;4.60;;
17345;SDS011;8790;53.590;10.002;2023-02-03T05:11:14;8.00;;;5.03;;
17345;SDS011;8790;53.590;10.002;2023-02-03T05:13:46;7.20;;;4.40;;
17345;SDS011;8790;53.590;10.002;2023-02-03T05:16:18;11.57;;;4.93;;
17345;SDS011;8790;53.590;10.002;2023-02-03T05:18:49;6.10;;;4.53;;
17345;SDS011;8790;53.590;10.002;2023-02-03T05:21:21;6.80;;;4.87;;
17345;SDS011;8790;53.590;10.002;2023-02-03T05:23:54;9.63;;;5.20;;
17345;SDS011;8790;53.590;10.002;2023-02-03T05:26:26;8.30;;;5.03;;
17345;SDS011;8790;53.590;10.002;2023-02-03T05:28:58;8.53;;;5.23;;
17345;SDS011;8790;53.590;10.002;2023-02-03T05:31:29;7.17;;;5.43;;
17345;SDS011;8790;53.590;10.002;2023-02-03T05:34:02;7.83;;;4.90;;
17345;SDS011;8790;53.590;10.002;2023-02-03T05:36:34;9.73;;;5.07;;
17345;SDS011;8790;53.590;10.002;2023-02-03T05:39:07;6.53;;;5.03;;
17345;SDS011;8790;53.590;10.002;2023-02-03T05:41:39;8.20;;;4.97;;
17345;SDS011;8790;53.590;10.002;2023-02-03T05:44:22;6.10;;;4.80;;
17345;SDS011;8790;53.590;10.002;2023-02-03T05:46:56;10.80;;;4.77;;
17345;SDS011;8790;53.590;10.002;2023-02-03T05:49:29;6.63;;;4.60;;
17345;SDS011;8790;53.590;10.002;2023-02-03T05:52:01;8.07;;;4.73;;
17345;SDS011;8790;53.590;10.002;2023-02-03T05:54:34;8.27;;;4.80;;
17345;SDS011;8790;53.590;10.002;2023-02-03T05:57:06;7.17;;;4.13;;
17345;SDS011;8790;53.590;10.002;2023-02-03T05:59:38;6.77;;;4.30;;
17345;SDS011;8790;53.590;10.002;2023-02-03T06:02:09;5.73;;;3.80;;
17345;SDS011;8790;53.590;10.002;2023-02-03T06:04:41;8.27;;;4.03;;
17345;SDS011;8790;53.590;10.002;2023-02-03T06:07:13;7.10;;;4.10;;
17345;SDS011;8790;53.590;10.002;2023-02-03T06:09:46;5.87;;;3.57;;
17345;SDS011;8790;53.590;10.002;2023-02-03T06:12:18;3.83;;;3.17;;
17345;SDS011;8790;53.590;10.002;2023-02-03T06:14:49;4.63;;;3.53;;
17345;SDS011;8790;53.590;10.002;2023-02-03T06:17:21;5.83;;;3.30;;
17345;SDS011;8790;53.590;10.002;2023-02-03T06:19:53;5.97;;;3.10;;
17345;SDS011;8790;53.590;10.002;2023-02-03T06:22:24;6.80;;;3.07;;
17345;SDS011;8790;53.590;10.002;2023-02-03T06:24:57;4.87;;;2.80;;
17345;SDS011;8790;53.590;10.002;2023-02-03T06:27:29;5.13;;;2.90;;
17345;SDS011;8790;53.590;10.002;2023-02-03T06:30:01;6.70;;;3.47;;
17345;SDS011;8790;53.590;10.002;2023-02-03T06:32:33;6.20;;;3.07;;
17345;SDS011;8790;53.590;10.002;2023-02-03T06:35:05;5.37;;;3.50;;
17345;SDS011;8790;53.590;10.002;2023-02-03T06:37:37;5.53;;;3.00;;
17345;SDS011;8790;53.590;10.002;2023-02-03T06:40:11;6.60;;;3.67;;
17345;SDS011;8790;53.590;10.002;2023-02-03T06:42:44;6.50;;;3.20;;
17345;SDS011;8790;53.590;10.002;2023-02-03T06:45:16;8.33;;;3.20;;
17345;SDS011;8790;53.590;10.002;2023-02-03T06:47:48;7.47;;;3.47;;
17345;SDS011;8790;53.590;10.002;2023-02-03T06:50:21;8.60;;;4.00;;
17345;SDS011;8790;53.590;10.002;2023-02-03T06:52:53;8.03;;;4.00;;
17345;SDS011;8790;53.590;10.002;2023-02-03T06:55:26;8.83;;;3.93;;
17345;SDS011;8790;53.590;10.002;2023-02-03T06:57:57;13.13;;;3.80;;
17345;SDS011;8790;53.590;10.002;2023-02-03T07:00:29;9.30;;;3.70;;
17345;SDS011;8790;53.590;10.002;2023-02-03T07:03:01;9.87;;;3.47;;
17345;SDS011;8790;53.590;10.002;2023-02-03T07:05:33;7.80;;;3.57;;
17345;SDS011;8790;53.590;10.002;2023-02-03T07:08:05;7.77;;;3.67;;
17345;SDS011;8790;53.590;10.002;2023-02-03T07:10:38;10.33;;;3.53;;
17345;SDS011;8790;53.590;10.002;2023-02-03T07:13:10;7.90;;;3.70;;
17345;SDS011;8790;53.590;10.002;2023-02-03T07:15:42;10.40;;;3.30;;
17345;SDS011;8790;53.590;10.002;2023-02-03T07:18:14;5.97;;;2.90;;
17345;SDS011;8790;53.590;10.002;2023-02-03T07:20:47;7.77;;;3.00;;
17345;SDS011;8790;53.590;10.002;2023-02-03T07:23:18;8.63;;;3.00;;
17345;SDS011;8790;53.590;10.002;2023-02-03T07:25:51;8.33;;;2.97;;
17345;SDS011;8790;53.590;10.002;2023-02-03T07:28:23;9.27;;;2.77;;
17345;SDS011;8790;53.590;10.002;2023-02-03T07:30:55;6.63;;;2.77;;
17345;SDS011;8790;53.590;10.002;2023-02-03T07:33:27;10.20;;;3.30;;
17345;SDS011;8790;53.590;10.002;2023-02-03T07:35:59;9.03;;;2.80;;
17345;SDS011;8790;53.590;10.002;2023-02-03T07:38:31;6.30;;;2.67;;
17345;SDS011;8790;53.590;10.002;2023-02-03T07:41:04;9.97;;;2.67;;
17345;SDS011;8790;53.590;10.002;2023-02-03T07:43:35;8.40;;;2.57;;
17345;SDS011;8790;53.590;10.002;2023-02-03T07:46:07;6.83;;;2.50;;
17345;SDS011;8790;53.590;10.002;2023-02-03T07:48:39;10.23;;;2.73;;
17345;SDS011;8790;53.590;10.002;2023-02-03T07:51:10;10.00;;;3.33;;
17345;SDS011;8790;53.590;10.002;2023-02-03T07:53:42;8.90;;;2.50;;
17345;SDS011;8790;53.590;10.002;2023-02-03T07:56:15;10.50;;;2.73;;
17345;SDS011;8790;53.590;10.002;2023-02-03T07:58:50;11.23;;;3.00;;
17345;SDS011;8790;53.590;10.002;2023-02-03T08:01:22;14.20;;;2.80;;
17345;SDS011;8790;53.590;10.002;2023-02-03T08:03:54;9.73;;;2.83;;
17345;SDS011;8790;53.590;10.002;2023-02-03T08:06:26;12.83;;;3.20;;
17345;SDS011;8790;53.590;10.002;2023-02-03T08:08:59;9.47;;;2.40;;
17345;SDS011;8790;53.590;10.002;2023-02-03T08:11:32;11.77;;;3.17;;
17345;SDS011;8790;53.590;10.002;2023-02-03T08:14:04;10.00;;;2.97;;
17345;SDS011;8790;53.590;10.002;2023-02-03T08:16:36;13.20;;;2.60;;
17345;SDS011;8790;53.590;10.002;2023-02-03T08:19:07;11.83;;;2.87;;
17345;SDS011;8790;53.590;10.002;2023-02-03T08:21:40;13.43;;;6.17;;
17345;SDS011;8790;53.590;10.002;2023-02-03T08:24:12;9.80;;;2.60;;
17345;SDS011;8790;53.590;10.002;2023-02-03T08:26:45;14.53;;;2.80;;
17345;SDS011;8790;53.590;10.002;2023-02-03T08:29:16;10.33;;;2.77;;
17345;SDS011;8790;53.590;10.002;2023-02-03T08:31:48;10.53;;;2.27;;
17345;SDS011;8790;53.590;10.002;2023-02-03T08:34:20;15.70;;;2.60;;
17345;SDS011;8790;53.590;10.002;2023-02-03T08:36:51;14.87;;;2.83;;
17345;SDS011;8790;53.590;10.002;2023-02-03T08:39:23;12.83;;;2.37;;
17345;SDS011;8790;53.590;10.002;2023-02-03T08:41:57;17.47;;;3.43;;
17345;SDS011;8790;53.590;10.002;2023-02-03T08:44:29;22.33;;;4.13;;
17345;SDS011;8790;53.590;10.002;2023-02-03T08:47:01;17.30;;;3.67;;
17345;SDS011;8790;53.590;10.002;2023-02-03T08:49:34;14.97;;;3.53;;
17345;SDS011;8790;53.590;10.002;2023-02-03T08:52:09;23.87;;;4.47;;
17345;SDS011;8790;53.590;10.002;2023-02-03T08:54:42;21.57;;;3.77;;
17345;SDS011;8790;53.590;10.002;2023-02-03T08:57:15;19.30;;;4.23;;
17345;SDS011;8790;53.590;10.002;2023-02-03T08:59:47;19.07;;;3.90;;
17345;SDS011;8790;53.590;10.002;2023-02-03T09:02:20;16.53;;;4.10;;
17345;SDS011;8790;53.590;10.002;2023-02-03T09:04:51;17.07;;;3.83;;
17345;SDS011;8790;53.590;10.002;2023-02-03T09:07:23;16.33;;;3.67;;
17345;SDS011;8790;53.590;10.002;2023-02-03T09:09:56;14.10;;;3.67;;
17345;SDS011;8790;53.590;10.002;2023-02-03T09:12:29;24.43;;;4.27;;
17345;SDS011;8790;53.590;10.002;2023-02-03T09:15:00;19.13;;;5.33;;
17345;SDS011;8790;53.590;10.002;2023-02-03T09:17:32;20.97;;;4.67;;
17345;SDS011;8790;53.590;10.002;2023-02-03T09:20:04;24.60;;;4.73;;
17345;SDS011;8790;53.590;10.002;2023-02-03T09:22:38;27.60;;;6.90;;
17345;SDS011;8790;53.590;10.002;2023-02-03T09:25:10;26.20;;;5.53;;
17345;SDS011;8790;53.590;10.002;2023-02-03T09:27:44;27.57;;;5.63;;
17345;SDS011;8790;53.590;10.002;2023-02-03T09:30:16;24.13;;;5.07;;
17345;SDS011;8790;53.590;10.002;2023-02-03T09:32:51;26.87;;;5.33;;
17345;SDS011;8790;53.590;10.002;2023-02-03T09:35:23;33.60;;;5.63;;
17345;SDS011;8790;53.590;10.002;2023-02-03T09:37:57;27.60;;;5.20;;
17345;SDS011;8790;53.590;10.002;2023-02-03T09:40:32;24.50;;;5.13;;
17345;SDS011;8790;53.590;10.002;2023-02-03T09:43:12;27.00;;;5.60;;
17345;SDS011;8790;53.590;10.002;2023-02-03T09:46:01;29.47;;;5.90;;
17345;SDS011;8790;53.590;10.002;2023-02-03T09:48:37;32.50;;;6.53;;
17345;SDS011;8790;53.590;10.002;2023-02-03T09:51:15;26.93;;;5.90;;
17345;SDS011;8790;53.590;10.002;2023-02-03T09:53:52;31.13;;;6.00;;
17345;SDS011;8790;53.590;10.002;2023-02-03T09:56:28;28.10;;;5.87;;
17345;SDS011;8790;53.590;10.002;2023-02-03T09:59:08;37.93;;;6.00;;
17345;SDS011;8790;53.590;10.002;2023-02-03T10:01:42;21.87;;;4.83;;
17345;SDS011;8790;53.590;10.002;2023-02-03T10:04:23;35.20;;;6.50;;
17345;SDS011;8790;53.590;10.002;2023-02-03T10:07:05;30.17;;;6.07;;
17345;SDS011;8790;53.590;10.002;2023-02-03T10:09:44;32.77;;;6.10;;
17345;SDS011;8790;53.590;10.002;2023-02-03T10:12:32;32.07;;;6.60;;
17345;SDS011;8790;53.590;10.002;2023-02-03T10:15:25;38.40;;;7.10;;
17345;SDS011;8790;53.590;10.002;2023-02-03T10:18:11;30.47;;;5.77;;
17345;SDS011;8790;53.590;10.002;2023-02-03T10:20:47;39.40;;;6.87;;
17345;SDS011;8790;53.590;10.002;2023-02-03T10:23:23;34.00;;;6.20;;
17345;SDS011;8790;53.590;10.002;2023-02-03T10:26:00;30.87;;;6.33;;
17345;SDS011;8790;53.590;10.002;2023-02-03T10:28:36;36.77;;;7.13;;
17345;SDS011;8790;53.590;10.002;2023-02-03T10:31:14;30.57;;;6.50;;
17345;SDS011;8790;53.590;10.002;2023-02-03T10:33:52;29.27;;;5.83;;
17345;SDS011;8790;53.590;10.002;2023-02-03T10:36:31;34.07;;;6.70;;
17345;SDS011;8790;53.590;10.002;2023-02-03T10:39:13;31.07;;;6.67;;
17345;SDS011;8790;53.590;10.002;2023-02-03T10:41:53;38.57;;;7.70;;
17345;SDS011;8790;53.590;10.002;2023-02-03T10:44:28;27.07;;;6.37;;
17345;SDS011;8790;53.590;10.002;2023-02-03T10:49:57;26.77;;;5.83;;
17345;SDS011;8790;53.590;10.002;2023-02-03T10:52:34;26.20;;;5.80;;
17345;SDS011;8790;53.590;10.002;2023-02-03T10:55:07;30.57;;;6.40;;
17345;SDS011;8790;53.590;10.002;2023-02-03T10:58:03;29.90;;;6.30;;
17345;SDS011;8790;53.590;10.002;2023-02-03T11:00:41;32.43;;;6.80;;
17345;SDS011;8790;53.590;10.002;2023-02-03T11:03:19;31.87;;;6.47;;
17345;SDS011;8790;53.590;10.002;2023-02-03T11:06:03;29.23;;;6.33;;
17345;SDS011;8790;53.590;10.002;2023-02-03T11:08:38;28.57;;;6.27;;
17345;SDS011;8790;53.590;10.002;2023-02-03T11:11:12;26.73;;;5.77;;
17345;SDS011;8790;53.590;10.002;2023-02-03T11:13:45;31.67;;;5.80;;
17345;SDS011;8790;53.590;10.002;2023-02-03T11:16:18;35.57;;;6.60;;
17345;SDS011;8790;53.590;10.002;2023-02-03T11:18:52;34.43;;;7.93;;
17345;SDS011;8790;53.590;10.002;2023-02-03T11:21:27;29.40;;;5.83;;
17345;SDS011;8790;53.590;10.002;2023-02-03T11:24:02;31.17;;;5.90;;
17345;SDS011;8790;53.590;10.002;2023-02-03T11:26:39;30.20;;;5.77;;
17345;SDS011;8790;53.590;10.002;2023-02-03T11:29:15;27.20;;;5.93;;
17345;SDS011;8790;53.590;10.002;2023-02-03T11:31:52;30.03;;;6.30;;
17345;SDS011;8790;53.590;10.002;2023-02-03T11:34:27;24.70;;;5.00;;
17345;SDS011;8790;53.590;10.002;2023-02-03T11:37:09;22.97;;;5.47;;
17345;SDS011;8790;53.590;10.002;2023-02-03T11:39:56;25.97;;;5.00;;
17345;SDS011;8790;53.590;10.002;2023-02-03T11:42:44;26.50;;;6.00;;
17345;SDS011;8790;53.590;10.002;2023-02-03T11:45:29;26.97;;;5.43;;
17345;SDS011;8790;53.590;10.002;2023-02-03T11:48:13;31.53;;;5.70;;
17345;SDS011;8790;53.590;10.002;2023-02-03T11:50:54;29.17;;;5.77;;
17345;SDS011;8790;53.590;10.002;2023-02-03T11:53:38;28.37;;;5.80;;
17345;SDS011;8790;53.590;10.002;2023-02-03T11:56:24;29.37;;;6.30;;
17345;SDS011;8790;53.590;10.002;2023-02-03T11:59:08;24.33;;;5.33;;
17345;SDS011;8790;53.590;10.002;2023-02-03T12:02:12;28.80;;;5.67;;
17345;SDS011;8790;53.590;10.002;2023-02-03T12:05:22;26.63;;;5.43;;
17345;SDS011;8790;53.590;10.002;2023-02-03T12:08:19;22.17;;;5.00;;
17345;SDS011;8790;53.590;10.002;2023-02-03T12:11:04;31.33;;;5.73;;
17345;SDS011;8790;53.590;10.002;2023-02-03T12:13:48;25.37;;;5.30;;
17345;SDS011;8790;53.590;10.002;2023-02-03T12:16:47;28.10;;;5.87;;
17345;SDS011;8790;53.590;10.002;2023-02-03T12:19:44;21.47;;;4.80;;
17345;SDS011;8790;53.590;10.002;2023-02-03T12:22:30;30.33;;;5.83;;
17345;SDS011;8790;53.590;10.002;2023-02-03T12:25:19;25.13;;;5.17;;
17345;SDS011;8790;53.590;10.002;2023-02-03T12:28:01;24.20;;;5.00;;
17345;SDS011;8790;53.590;10.002;2023-02-03T12:30:40;26.07;;;5.20;;
17345;SDS011;8790;53.590;10.002;2023-02-03T12:33:16;24.37;;;4.80;;
17345;SDS011;8790;53.590;10.002;2023-02-03T12:35:51;24.67;;;5.27;;
17345;SDS011;8790;53.590;10.002;2023-02-03T12:38:28;29.30;;;5.80;;
17345;SDS011;8790;53.590;10.002;2023-02-03T12:41:09;27.23;;;5.53;;
17345;SDS011;8790;53.590;10.002;2023-02-03T12:43:44;28.60;;;5.80;;
17345;SDS011;8790;53.590;10.002;2023-02-03T12:46:19;25.33;;;5.70;;
17345;SDS011;8790;53.590;10.002;2023-02-03T12:48:55;26.07;;;5.13;;
17345;SDS011;8790;53.590;10.002;2023-02-03T12:51:32;27.53;;;5.50;;
17345;SDS011;8790;53.590;10.002;2023-02-03T12:54:09;22.17;;;5.53;;
17345;SDS011;8790;53.590;10.002;2023-02-03T12:56:50;24.70;;;5.77;;
17345;SDS011;8790;53.590;10.002;2023-02-03T12:59:25;23.30;;;5.70;;
17345;SDS011;8790;53.590;10.002;2023-02-03T13:02:01;25.53;;;5.13;;
17345;SDS011;8790;53.590;10.002;2023-02-03T13:04:43;28.70;;;5.20;;
17345;SDS011;8790;53.590;10.002;2023-02-03T13:07:23;22.70;;;4.90;;
17345;SDS011;8790;53.590;10.002;2023-02-03T13:09:59;26.13;;;4.93;;
17345;SDS011;8790;53.590;10.002;2023-02-03T13:12:38;18.00;;;4.80;;
17345;SDS011;8790;53.590;10.002;2023-02-03T13:15:18;26.17;;;5.20;;
17345;SDS011;8790;53.590;10.002;2023-02-03T13:17:56;24.97;;;5.97;;
17345;SDS011;8790;53.590;10.002;2023-02-03T13:20:33;21.00;;;4.93;;
17345;SDS011;8790;53.590;10.002;2023-02-03T13:23:07;21.37;;;4.47;;
17345;SDS011;8790;53.590;10.002;2023-02-03T13:25:47;21.97;;;4.53;;
17345;SDS011;8790;53.590;10.002;2023-02-03T13:28:37;20.47;;;5.23;;
17345;SDS011;8790;53.590;10.002;2023-02-03T13:31:30;28.00;;;4.83;;
17345;SDS011;8790;53.590;10.002;2023-02-03T13:34:14;25.70;;;4.77;;
17345;SDS011;8790;53.590;10.002;2023-02-03T13:37:09;24.33;;;4.70;;
17345;SDS011;8790;53.590;10.002;2023-02-03T13:40:08;23.70;;;4.97;;
17345;SDS011;8790;53.590;10.002;2023-02-03T13:42:59;26.37;;;5.30;;
17345;SDS011;8790;53.590;10.002;2023-02-03T13:45:37;29.10;;;4.63;;
17345;SDS011;8790;53.590;10.002;2023-02-03T13:48:13;29.60;;;6.10;;
17345;SDS011;8790;53.590;10.002;2023-02-03T13:50:48;30.00;;;5.57;;
17345;SDS011;8790;53.590;10.002;2023-02-03T13:53:22;26.33;;;5.00;;
17345;SDS011;8790;53.590;10.002;2023-02-03T13:55:57;25.83;;;5.13;;
17345;SDS011;8790;53.590;10.002;2023-02-03T13:58:31;20.73;;;4.87;;
17345;SDS011;8790;53.590;10.002;2023-02-03T14:04:08;19.57;;;4.87;;
17345;SDS011;8790;53.590;10.002;2023-02-03T14:07:25;27.07;;;5.30;;
17345;SDS011;8790;53.590;10.002;2023-02-03T14:12:54;23.57;;;4.93;;
17345;SDS011;8790;53.590;10.002;2023-02-03T14:15:30;21.73;;;4.53;;
17345;SDS011;8790;53.590;10.002;2023-02-03T14:23:48;21.17;;;4.87;;
17345;SDS011;8790;53.590;10.002;2023-02-03T14:26:33;26.83;;;5.73;;
17345;SDS011;8790;53.590;10.002;2023-02-03T14:29:09;25.03;;;4.93;;
17345;SDS011;8790;53.590;10.002;2023-02-03T14:31:55;26.70;;;5.40;;
17345;SDS011;8790;53.590;10.002;2023-02-03T14:34:33;22.50;;;5.50;;
17345;SDS011;8790;53.590;10.002;2023-02-03T14:37:14;23.70;;;4.83;;
17345;SDS011;8790;53.590;10.002;2023-02-03T14:40:06;24.17;;;5.17;;
17345;SDS011;8790;53.590;10.002;2023-02-03T14:42:51;30.67;;;5.63;;
17345;SDS011;8790;53.590;10.002;2023-02-03T14:46:10;24.37;;;4.93;;
17345;SDS011;8790;53.590;10.002;2023-02-03T14:49:03;22.87;;;5.30;;
17345;SDS011;8790;53.590;10.002;2023-02-03T14:51:50;25.07;;;5.17;;
17345;SDS011;8790;53.590;10.002;2023-02-03T14:54:42;28.00;;;5.30;;
17345;SDS011;8790;53.590;10.002;2023-02-03T14:57:27;23.57;;;5.27;;
17345;SDS011;8790;53.590;10.002;2023-02-03T15:00:24;23.10;;;5.93;;
17345;SDS011;8790;53.590;10.002;2023-02-03T15:03:13;28.30;;;6.07;;
17345;SDS011;8790;53.590;10.002;2023-02-03T15:05:55;23.47;;;4.63;;
17345;SDS011;8790;53.590;10.002;2023-02-03T15:08:31;28.90;;;5.47;;
17345;SDS011;8790;53.590;10.002;2023-02-03T15:11:18;30.60;;;6.07;;
17345;SDS011;8790;53.590;10.002;2023-02-03T15:16:53;28.07;;;5.73;;
17345;SDS011;8790;53.590;10.002;2023-02-03T15:19:27;30.07;;;5.47;;
17345;SDS011;8790;53.590;10.002;2023-02-03T15:22:15;31.67;;;5.83;;
17345;SDS011;8790;53.590;10.002;2023-02-03T15:24:51;31.03;;;5.10;;
17345;SDS011;8790;53.590;10.002;2023-02-03T15:27:26;28.60;;;6.17;;
17345;SDS011;8790;53.590;10.002;2023-02-03T15:30:12;23.70;;;5.03;;
17345;SDS011;8790;53.590;10.002;2023-02-03T15:32:46;33.10;;;6.03;;
17345;SDS011;8790;53.590;10.002;2023-02-03T15:35:28;25.57;;;5.87;;
17345;SDS011;8790;53.590;10.002;2023-02-03T15:38:02;25.40;;;5.23;;
17345;SDS011;8790;53.590;10.002;2023-02-03T15:40:39;27.17;;;6.33;;
17345;SDS011;8790;53.590;10.002;2023-02-03T15:43:15;26.63;;;6.30;;
17345;SDS011;8790;53.590;10.002;2023-02-03T15:45:52;29.33;;;6.83;;
17345;SDS011;8790;53.590;10.002;2023-02-03T15:48:30;29.53;;;5.70;;
17345;SDS011;8790;53.590;10.002;2023-02-03T15:51:07;28.33;;;5.47;;
17345;SDS011;8790;53.590;10.002;2023-02-03T15:53:44;25.53;;;5.53;;